Pioneer — WDG7407 — position and weather

sailwx.info

Track history (hours):
 
Tides and Currents Weather Stations Pressure Air Temp Water Temp Dewpoint Dewpoint Depression Visibility Wind Speed Wind Dir Waves Ship Positions

Pioneer

Owner: Pennisi II, Giuseppe G, Monterey, CA. More information available from US FCC via Universal Licensing System and Coast Guard Vessel Documentation Center.

Last reported at 2018-Jul-22 19:27 UTC. Time now 2018-Jul-22 19:52 UTC.
Position N 37°49' W 122°25'.

Length 19 m.

Type: Fishing. MMSI: 367566960.

Date/timePositionNaut miles runAvg speedWind from/ knotsBaromVisibWave heightAir tempDewpointWater temp
2018-Jul-22 19:27N 37°49' W 122°25'0 0.0
2018-Jul-22 18:57N 37°49' W 122°25'0 0.0
2018-Jul-22 18:30N 37°49' W 122°25'0 0.0
2018-Jul-22 17:57N 37°49' W 122°25'0 0.0
2018-Jul-22 17:30N 37°49' W 122°25'0 0.0
2018-Jul-22 17:00N 37°49' W 122°25'0 0.0
2018-Jul-22 16:30N 37°49' W 122°25'0 0.0
2018-Jul-22 16:00N 37°49' W 122°25'0 0.0
2018-Jul-22 15:00N 37°49' W 122°25'0 0.0
2018-Jul-22 14:30N 37°49' W 122°25'0 0.0
2018-Jul-22 13:54N 37°49' W 122°25'0 0.0
2018-Jul-22 13:30N 37°49' W 122°25'0 0.0
2018-Jul-22 13:00N 37°49' W 122°25'0 0.0
2018-Jul-22 12:30N 37°49' W 122°25'0 0.0
2018-Jul-22 11:42N 37°49' W 122°25'0 0.0
2018-Jul-22 11:30N 37°49' W 122°25'0 0.0
2018-Jul-22 11:00N 37°49' W 122°25'0 0.0
2018-Jul-22 10:30N 37°49' W 122°25'0 0.0
2018-Jul-22 10:00N 37°49' W 122°25'0 0.0
2018-Jul-22 09:30N 37°49' W 122°25'0 0.0
2018-Jul-22 08:54N 37°49' W 122°25'0 0.0
2018-Jul-22 08:30N 37°49' W 122°25'0 0.0
2018-Jul-22 07:57N 37°49' W 122°25'0 0.0
2018-Jul-22 07:27N 37°49' W 122°25'0 0.0
2018-Jul-22 06:48N 37°49' W 122°25'0 0.0
2018-Jul-22 06:30N 37°49' W 122°25'0 0.0
2018-Jul-22 06:00N 37°49' W 122°25'0 0.0
2018-Jul-22 05:21N 37°49' W 122°25'0 0.0
2018-Jul-22 04:57N 37°49' W 122°25'0 0.0
2018-Jul-22 04:21N 37°49' W 122°25'0 0.0
2018-Jul-22 04:00N 37°49' W 122°25'0 0.0
2018-Jul-22 03:27N 37°49' W 122°25'0 0.0
2018-Jul-22 03:00N 37°49' W 122°25'0 0.0
2018-Jul-22 02:27N 37°49' W 122°25'0 0.0
2018-Jul-22 02:00N 37°49' W 122°25'0 0.0
2018-Jul-22 01:30N 37°49' W 122°25'0 0.0
2018-Jul-22 00:57N 37°49' W 122°25'0 0.0
2018-Jul-22 00:30N 37°49' W 122°25'0 0.0
2018-Jul-22 00:00N 37°49' W 122°25'0 0.0
2018-Jul-21 23:30N 37°49' W 122°25'0 0.0
2018-Jul-21 22:48N 37°49' W 122°25'0 0.0
2018-Jul-21 22:21N 37°49' W 122°25'0 0.0
2018-Jul-21 22:00N 37°49' W 122°25'0 0.0
2018-Jul-21 21:24N 37°49' W 122°25'0 0.0
2018-Jul-21 21:00N 37°49' W 122°25'0 0.0
2018-Jul-21 20:30N 37°49' W 122°25'0 0.0
2018-Jul-21 19:57N 37°49' W 122°25'0 0.0
2018-Jul-21 19:30N 37°49' W 122°25'0 0.0
2018-Jul-21 19:00N 37°49' W 122°25'0 0.0
2018-Jul-21 18:24N 37°49' W 122°25'0 0.0
2018-Jul-21 18:00N 37°49' W 122°25'0 0.0
2018-Jul-21 17:30N 37°49' W 122°25'0 0.0
2018-Jul-21 17:00N 37°49' W 122°25'0 0.0
2018-Jul-21 16:30N 37°49' W 122°25'0 0.0
2018-Jul-21 15:57N 37°49' W 122°25'0 0.0
2018-Jul-21 15:30N 37°49' W 122°25'0 0.0
2018-Jul-21 15:00N 37°49' W 122°25'0 0.0
2018-Jul-21 14:30N 37°49' W 122°25'0 0.0
2018-Jul-21 13:30N 37°49' W 122°25'0 0.0
2018-Jul-21 13:00N 37°49' W 122°25'0 0.0
2018-Jul-21 12:27N 37°49' W 122°25'0 0.0
2018-Jul-21 12:00N 37°49' W 122°25'0 0.0
2018-Jul-21 11:24N 37°49' W 122°25'0 0.0
2018-Jul-21 11:00N 37°49' W 122°25'0 0.0
2018-Jul-21 10:24N 37°49' W 122°25'0 0.0
2018-Jul-21 10:00N 37°49' W 122°25'0 0.0
2018-Jul-21 09:30N 37°49' W 122°25'0 0.0
2018-Jul-21 08:54N 37°49' W 122°25'0 0.0
2018-Jul-21 08:30N 37°49' W 122°25'0 0.0
2018-Jul-21 08:00N 37°49' W 122°25'0 0.0
2018-Jul-21 07:30N 37°49' W 122°25'0 0.8
2018-Jul-21 07:00N 37°49' W 122°25'3 5.4
2018-Jul-21 06:30N 37°49' W 122°29'2 4.7
2018-Jul-21 05:59N 37°48' W 122°31'19 6.6
2018-Jul-21 03:07N 37°37' W 122°51'17 0.8
2018-Jul-20 06:41N 37°52' W 123°02'2 5.9
2018-Jul-20 06:18N 37°51' W 122°59'19 6.2
2018-Jul-20 03:12N 37°47' W 122°36'2 6.3
2018-Jul-20 02:56N 37°48' W 122°34'3 6.4
2018-Jul-20 02:29N 37°49' W 122°30'3 5.2
2018-Jul-20 02:00N 37°49' W 122°27'2 3.1
2018-Jul-20 01:29N 37°49' W 122°25'0 0.1
2018-Jul-20 00:56N 37°49' W 122°25'0 0.0
2018-Jul-20 00:29N 37°49' W 122°25'0 0.0
2018-Jul-19 23:59N 37°49' W 122°25'0 0.0
2018-Jul-19 23:29N 37°49' W 122°25'0 0.0
2018-Jul-19 22:59N 37°49' W 122°25'0 0.0
2018-Jul-19 22:26N 37°49' W 122°25'0 0.0
2018-Jul-19 21:59N 37°49' W 122°25'0 0.0
2018-Jul-19 21:23N 37°49' W 122°25'0 0.0
2018-Jul-19 20:59N 37°49' W 122°25'0 0.0
2018-Jul-19 20:26N 37°49' W 122°25'0 0.0
2018-Jul-19 19:59N 37°49' W 122°25'0 0.0
2018-Jul-19 19:29N 37°49' W 122°25'0 0.2
2018-Jul-19 18:52N 37°49' W 122°25'0 0.0
2018-Jul-19 18:28N 37°49' W 122°25'0 0.2
2018-Jul-19 17:57N 37°49' W 122°25'0 0.0
2018-Jul-19 17:30N 37°49' W 122°25'0 0.2
2018-Jul-19 16:55N 37°49' W 122°25'0 0.0
2018-Jul-19 16:28N 37°49' W 122°25'0 0.0
2018-Jul-19 15:55N 37°49' W 122°25'0 0.0
2018-Jul-19 15:28N 37°49' W 122°25'0 0.0
2018-Jul-19 14:55N 37°49' W 122°25'0 0.0
2018-Jul-19 14:28N 37°49' W 122°25'0 0.0
2018-Jul-19 13:22N 37°49' W 122°25'0 0.0
2018-Jul-19 12:58N 37°49' W 122°25'0 0.0
2018-Jul-19 12:28N 37°49' W 122°25'0 0.0
2018-Jul-19 11:58N 37°49' W 122°25'0 0.0
2018-Jul-19 11:28N 37°49' W 122°25'0 0.0
2018-Jul-19 10:55N 37°49' W 122°25'0 0.0
2018-Jul-19 10:25N 37°49' W 122°25'0 0.0
2018-Jul-19 09:58N 37°49' W 122°25'0 0.0
2018-Jul-19 09:28N 37°49' W 122°25'0 0.0
2018-Jul-19 08:58N 37°49' W 122°25'0 0.0
2018-Jul-19 08:22N 37°49' W 122°25'0 0.0
2018-Jul-19 07:58N 37°49' W 122°25'0 0.0
2018-Jul-19 07:28N 37°49' W 122°25'0 0.0
2018-Jul-19 06:58N 37°49' W 122°25'0 0.0
2018-Jul-19 06:28N 37°49' W 122°25'0 0.0
2018-Jul-19 05:58N 37°49' W 122°25'0 0.0
2018-Jul-19 05:22N 37°49' W 122°25'0 0.0
2018-Jul-19 04:52N 37°49' W 122°25'0 0.0
2018-Jul-19 04:25N 37°49' W 122°25'0 0.0
2018-Jul-19 03:58N 37°49' W 122°25'0 0.0
2018-Jul-19 03:22N 37°49' W 122°25'0 0.0
2018-Jul-19 02:58N 37°49' W 122°25'0 0.0
2018-Jul-19 02:25N 37°49' W 122°25'0 0.0
2018-Jul-19 01:55N 37°49' W 122°25'0 0.0
2018-Jul-19 01:25N 37°49' W 122°25'0 0.0
2018-Jul-19 00:58N 37°49' W 122°25'0 0.0
2018-Jul-19 00:28N 37°49' W 122°25'0 0.0
2018-Jul-18 23:58N 37°49' W 122°25'0 0.0
2018-Jul-18 23:25N 37°49' W 122°25'0 0.0
2018-Jul-18 22:55N 37°49' W 122°25'0 0.0
2018-Jul-18 22:22N 37°49' W 122°25'0 0.0
2018-Jul-18 21:55N 37°49' W 122°25'0 0.0
2018-Jul-18 21:28N 37°49' W 122°25'0 0.0
2018-Jul-18 20:58N 37°49' W 122°25'0 0.0
2018-Jul-18 20:28N 37°49' W 122°25'0 0.0
2018-Jul-18 19:58N 37°49' W 122°25'0 0.0
2018-Jul-18 19:22N 37°49' W 122°25'0 0.0
2018-Jul-18 18:58N 37°49' W 122°25'0 0.0
2018-Jul-18 18:28N 37°49' W 122°25'0 0.0
2018-Jul-18 17:38N 37°49' W 122°25'0 0.0
2018-Jul-18 17:29N 37°49' W 122°25'0 0.0
2018-Jul-18 16:59N 37°49' W 122°25'0 0.0
2018-Jul-18 16:29N 37°49' W 122°25'0 0.0
2018-Jul-18 15:56N 37°49' W 122°25'0 0.0
2018-Jul-18 15:29N 37°49' W 122°25'0 0.0
2018-Jul-18 14:59N 37°49' W 122°25'0 0.0
2018-Jul-18 14:20N 37°49' W 122°25'0 0.0
2018-Jul-18 11:44N 37°49' W 122°25'0 0.0
2018-Jul-18 11:14N 37°49' W 122°25'0 0.0
2018-Jul-18 10:29N 37°49' W 122°25'0 0.0
2018-Jul-18 09:56N 37°49' W 122°25'0 0.0
2018-Jul-18 09:29N 37°49' W 122°25'0 0.0
2018-Jul-18 08:59N 37°49' W 122°25'0 0.0
2018-Jul-18 08:26N 37°49' W 122°25'0 0.0
2018-Jul-18 07:59N 37°49' W 122°25'0 0.0
2018-Jul-18 07:29N 37°49' W 122°25'0 0.0
2018-Jul-18 06:56N 37°49' W 122°25'0 0.0
2018-Jul-18 06:26N 37°49' W 122°25'0 0.0
2018-Jul-18 05:59N 37°49' W 122°25'0 0.0
2018-Jul-18 05:29N 37°49' W 122°25'0 0.0
2018-Jul-18 04:59N 37°49' W 122°25'0 0.0
2018-Jul-18 04:29N 37°49' W 122°25'0 0.0
2018-Jul-18 03:59N 37°49' W 122°25'0 0.0
2018-Jul-18 03:29N 37°49' W 122°25'0 0.0
2018-Jul-18 02:59N 37°49' W 122°25'0 0.0
2018-Jul-18 02:29N 37°49' W 122°25'0 0.0
2018-Jul-18 01:59N 37°49' W 122°25'0 0.0
2018-Jul-18 01:29N 37°49' W 122°25'0 0.0
2018-Jul-18 00:56N 37°49' W 122°25'0 0.0
2018-Jul-18 00:29N 37°49' W 122°25'0 0.0
2018-Jul-17 23:59N 37°49' W 122°25'0 0.0
2018-Jul-17 23:29N 37°49' W 122°25'0 0.0
2018-Jul-17 22:44N 37°49' W 122°25'0 0.0
2018-Jul-17 22:30N 37°49' W 122°25'0 0.0
2018-Jul-17 21:53N 37°49' W 122°25'0 0.0
2018-Jul-17 21:26N 37°49' W 122°25'0 0.0
2018-Jul-17 20:59N 37°49' W 122°25'0 0.0
2018-Jul-17 20:26N 37°49' W 122°25'0 0.0
2018-Jul-17 19:56N 37°49' W 122°25'0 0.0
2018-Jul-17 19:29N 37°49' W 122°25'0 0.0
2018-Jul-17 18:50N 37°49' W 122°25'0 0.0
2018-Jul-17 18:12N 37°49' W 122°25'0 0.0
2018-Jul-17 17:42N 37°49' W 122°25'0 0.0
2018-Jul-17 17:30N 37°49' W 122°25'0 0.0
2018-Jul-17 17:00N 37°49' W 122°25'0 0.0
2018-Jul-17 16:18N 37°49' W 122°25'0 0.0
2018-Jul-17 15:57N 37°49' W 122°25'0 0.0
2018-Jul-17 15:21N 37°49' W 122°25'0 0.0
2018-Jul-17 14:57N 37°49' W 122°25'0 0.0
2018-Jul-17 14:30N 37°49' W 122°25'0 0.0
2018-Jul-17 13:51N 37°49' W 122°25'0 0.0
2018-Jul-17 13:21N 37°49' W 122°25'0 0.0
2018-Jul-17 12:54N 37°49' W 122°25'0 0.0
2018-Jul-17 12:24N 37°49' W 122°25'0 0.0
2018-Jul-17 11:57N 37°49' W 122°25'0 0.0
2018-Jul-17 11:24N 37°49' W 122°25'0 0.0
2018-Jul-17 11:00N 37°49' W 122°25'0 0.0
2018-Jul-17 10:30N 37°49' W 122°25'0 0.0
2018-Jul-17 09:54N 37°49' W 122°25'0 0.0
2018-Jul-17 09:30N 37°49' W 122°25'0 0.0
2018-Jul-17 09:00N 37°49' W 122°25'0 0.0
2018-Jul-17 08:30N 37°49' W 122°25'0 0.0
2018-Jul-17 08:00N 37°49' W 122°25'0 0.0
2018-Jul-17 07:30N 37°49' W 122°25'0 0.0
2018-Jul-17 07:00N 37°49' W 122°25'0 0.0
2018-Jul-17 06:30N 37°49' W 122°25'0 0.0
2018-Jul-17 05:54N 37°49' W 122°25'0 0.0
2018-Jul-17 05:27N 37°49' W 122°25'0 0.0
2018-Jul-17 05:00N 37°49' W 122°25'0 0.0
2018-Jul-17 04:24N 37°49' W 122°25'0 0.0
2018-Jul-17 04:00N 37°49' W 122°25'0 0.0
2018-Jul-17 03:30N 37°49' W 122°25'0 0.0
2018-Jul-17 02:57N 37°49' W 122°25'0 0.0
2018-Jul-17 02:30N 37°49' W 122°25'0 0.0
2018-Jul-17 01:51N 37°49' W 122°25'0 0.0
2018-Jul-17 01:30N 37°49' W 122°25'0 0.0
2018-Jul-17 01:00N 37°49' W 122°25'0 0.0
2018-Jul-17 00:30N 37°49' W 122°25'0 0.0
2018-Jul-16 23:27N 37°49' W 122°25'0 0.0
2018-Jul-16 22:51N 37°49' W 122°25'0 0.0
2018-Jul-16 22:27N 37°49' W 122°25'0 0.0
2018-Jul-16 22:00N 37°49' W 122°25'0 0.0
2018-Jul-16 21:30N 37°49' W 122°25'0 0.0
2018-Jul-16 21:00N 37°49' W 122°25'0 0.0
2018-Jul-16 20:27N 37°49' W 122°25'0 0.0
2018-Jul-16 19:57N 37°49' W 122°25'0 0.0
2018-Jul-16 19:27N 37°49' W 122°25'0 0.0
2018-Jul-16 19:00N 37°49' W 122°25'0 0.0
2018-Jul-16 18:21N 37°49' W 122°25'0 0.0
2018-Jul-16 18:00N 37°49' W 122°25'0 0.0
2018-Jul-16 17:24N 37°49' W 122°25'0 0.0
2018-Jul-16 17:00N 37°49' W 122°25'0 0.0
2018-Jul-16 16:30N 37°49' W 122°25'0 0.0
2018-Jul-16 15:48N 37°49' W 122°25'0 0.0
2018-Jul-16 15:27N 37°49' W 122°25'0 0.0
2018-Jul-16 15:00N 37°49' W 122°25'0 0.0
2018-Jul-16 14:27N 37°49' W 122°25'0 0.0
2018-Jul-16 14:00N 37°49' W 122°25'0 0.0
2018-Jul-16 13:24N 37°49' W 122°25'0 0.0
2018-Jul-16 13:00N 37°49' W 122°25'0 0.0
2018-Jul-16 12:30N 37°49' W 122°25'0 0.0
2018-Jul-16 12:00N 37°49' W 122°25'0 0.0
2018-Jul-16 11:30N 37°49' W 122°25'0 0.0
2018-Jul-16 11:00N 37°49' W 122°25'0 0.0
2018-Jul-16 10:27N 37°49' W 122°25'0 0.0
2018-Jul-16 10:00N 37°49' W 122°25'0 0.0
2018-Jul-16 09:30N 37°49' W 122°25'0 0.0
2018-Jul-16 09:00N 37°49' W 122°25'0 0.0
2018-Jul-16 08:27N 37°49' W 122°25'0 0.0
2018-Jul-16 08:00N 37°49' W 122°25'0 0.0
2018-Jul-16 07:27N 37°49' W 122°25'0 0.0
2018-Jul-16 06:54N 37°49' W 122°25'0 0.0
2018-Jul-16 06:27N 37°49' W 122°25'0 0.0
2018-Jul-16 06:00N 37°49' W 122°25'0 0.0
2018-Jul-16 05:30N 37°49' W 122°25'0 0.0
2018-Jul-16 04:51N 37°49' W 122°25'0 0.0
2018-Jul-16 04:30N 37°49' W 122°25'0 0.0
2018-Jul-16 04:00N 37°49' W 122°25'0 0.0
2018-Jul-16 03:30N 37°49' W 122°25'0 0.0
2018-Jul-16 02:55N 37°49' W 122°25'0 0.0
2018-Jul-16 02:25N 37°49' W 122°25'0 0.0
2018-Jul-16 01:55N 37°49' W 122°25'0 0.0
2018-Jul-16 01:28N 37°49' W 122°25'0 0.0
2018-Jul-16 00:58N 37°49' W 122°25'0 0.0
2018-Jul-16 00:28N 37°49' W 122°25'0 0.0
2018-Jul-15 23:49N 37°49' W 122°25'0 0.0
2018-Jul-15 23:28N 37°49' W 122°25'0 0.0
2018-Jul-15 22:55N 37°49' W 122°25'0 0.0
2018-Jul-15 22:28N 37°49' W 122°25'0 0.0
2018-Jul-15 21:52N 37°49' W 122°25'0 0.0
2018-Jul-15 21:28N 37°49' W 122°25'0 0.0
2018-Jul-15 21:00N 37°49' W 122°25'0 0.0
2018-Jul-15 20:27N 37°49' W 122°25'0 0.0
2018-Jul-15 20:00N 37°49' W 122°25'0 0.0
2018-Jul-15 19:30N 37°49' W 122°25'0 0.0
2018-Jul-15 18:57N 37°49' W 122°25'0 0.0
2018-Jul-15 18:30N 37°49' W 122°25'0 0.0
2018-Jul-15 17:57N 37°49' W 122°25'0 0.0
2018-Jul-15 17:27N 37°49' W 122°25'0 0.0
2018-Jul-15 16:48N 37°49' W 122°25'0 0.0
2018-Jul-15 16:12N 37°49' W 122°25'0 0.0
2018-Jul-15 16:00N 37°49' W 122°25'0 0.0
2018-Jul-15 15:21N 37°49' W 122°25'0 0.0
2018-Jul-15 15:00N 37°49' W 122°25'0 0.0
2018-Jul-15 14:27N 37°49' W 122°25'0 0.0
2018-Jul-15 13:57N 37°49' W 122°25'0 0.0
2018-Jul-15 13:30N 37°49' W 122°25'0 0.0
2018-Jul-15 13:00N 37°49' W 122°25'0 0.0
2018-Jul-15 12:24N 37°49' W 122°25'0 0.0
2018-Jul-15 12:00N 37°49' W 122°25'0 0.0
2018-Jul-15 11:30N 37°49' W 122°25'0 0.0
2018-Jul-15 11:00N 37°49' W 122°25'0 0.0
2018-Jul-15 10:30N 37°49' W 122°25'0 0.0
2018-Jul-15 10:00N 37°49' W 122°25'0 0.0
2018-Jul-15 09:30N 37°49' W 122°25'0 0.0
2018-Jul-15 08:57N 37°49' W 122°25'0 0.0
2018-Jul-15 08:30N 37°49' W 122°25'0 0.0
2018-Jul-15 08:00N 37°49' W 122°25'0 0.0
2018-Jul-15 07:30N 37°49' W 122°25'0 0.0
2018-Jul-15 07:00N 37°49' W 122°25'0 0.0
2018-Jul-15 06:24N 37°49' W 122°25'0 0.0
2018-Jul-15 06:00N 37°49' W 122°25'0 0.0
2018-Jul-15 05:30N 37°49' W 122°25'0 0.0
2018-Jul-15 05:00N 37°49' W 122°25'0 0.0
2018-Jul-15 04:24N 37°49' W 122°25'0 0.0
2018-Jul-15 04:00N 37°49' W 122°25'0 0.0
2018-Jul-15 03:30N 37°49' W 122°25'0 0.0
2018-Jul-15 03:00N 37°49' W 122°25'0 0.0
2018-Jul-15 02:30N 37°49' W 122°25'0 0.0
2018-Jul-15 02:00N 37°49' W 122°25'0 0.0
2018-Jul-15 01:30N 37°49' W 122°25'0 0.0
2018-Jul-15 00:56N 37°49' W 122°25'0 0.0
2018-Jul-15 00:26N 37°49' W 122°25'0 0.0
2018-Jul-14 23:59N 37°49' W 122°25'0 0.0
2018-Jul-14 23:29N 37°49' W 122°25'0 0.0
2018-Jul-14 22:50N 37°49' W 122°25'0 0.0
2018-Jul-14 22:23N 37°49' W 122°25'0 0.0
2018-Jul-14 21:59N 37°49' W 122°25'0 0.0
2018-Jul-14 21:29N 37°49' W 122°25'0 0.0
2018-Jul-14 20:59N 37°49' W 122°25'0 0.0
2018-Jul-14 20:29N 37°49' W 122°25'0 0.0
2018-Jul-14 19:56N 37°49' W 122°25'0 0.0
2018-Jul-14 19:29N 37°49' W 122°25'0 0.0
2018-Jul-14 18:59N 37°49' W 122°25'0 0.0
2018-Jul-14 18:29N 37°49' W 122°25'0 0.0
2018-Jul-14 17:56N 37°49' W 122°25'0 0.0
2018-Jul-14 17:29N 37°49' W 122°25'0 0.0
2018-Jul-14 16:59N 37°49' W 122°25'0 0.0
2018-Jul-14 16:29N 37°49' W 122°25'0 0.0
2018-Jul-14 15:59N 37°49' W 122°25'0 0.0
2018-Jul-14 15:29N 37°49' W 122°25'0 0.0
2018-Jul-14 14:58N 37°49' W 122°25'0 0.0
2018-Jul-14 13:55N 37°49' W 122°25'0 0.0
2018-Jul-14 13:27N 37°49' W 122°25'0 0.0
2018-Jul-14 13:00N 37°49' W 122°25'0 0.0
2018-Jul-14 12:27N 37°49' W 122°25'0 0.0
2018-Jul-14 12:00N 37°49' W 122°25'0 0.0
2018-Jul-14 11:30N 37°49' W 122°25'0 0.0
2018-Jul-14 11:00N 37°49' W 122°25'0 0.0
2018-Jul-14 10:30N 37°49' W 122°25'0 0.0
2018-Jul-14 10:00N 37°49' W 122°25'0 0.0
2018-Jul-14 09:30N 37°49' W 122°25'0 0.0
2018-Jul-14 09:00N 37°49' W 122°25'0 0.0
2018-Jul-14 08:30N 37°49' W 122°25'0 0.0
2018-Jul-14 08:00N 37°49' W 122°25'0 0.0
2018-Jul-14 07:30N 37°49' W 122°25'0 0.0
2018-Jul-14 07:00N 37°49' W 122°25'0 0.0
2018-Jul-14 06:30N 37°49' W 122°25'0 0.0
2018-Jul-14 05:57N 37°49' W 122°25'0 0.0
2018-Jul-14 05:30N 37°49' W 122°25'0 0.5
2018-Jul-14 05:00N 37°49' W 122°25'4 7.1
2018-Jul-14 04:30N 37°49' W 122°30'6 8.2
2018-Jul-14 03:44N 37°45' W 122°36'  
Track history (hours):
 
Tides and Currents Weather Stations Pressure Air Temp Water Temp Dewpoint Dewpoint Depression Visibility Wind Speed Wind Dir Waves Ship Positions

Pioneer

Owner: Pennisi II, Giuseppe G, Monterey, CA. More information available from US FCC via Universal Licensing System and Coast Guard Vessel Documentation Center.

Last reported at 2018-Jul-22 19:27 UTC. Time now 2018-Jul-22 19:52 UTC.
Position N 37°49' W 122°25'.

Length 19 m.

Type: Fishing. MMSI: 367566960.

Date/timePositionNaut miles runAvg speedWind from/ knotsBaromVisibWave heightAir tempDewpointWater temp
2018-Jul-22 19:27N 37°49' W 122°25'0 0.0
2018-Jul-22 18:57N 37°49' W 122°25'0 0.0
2018-Jul-22 18:30N 37°49' W 122°25'0 0.0
2018-Jul-22 17:57N 37°49' W 122°25'0 0.0
2018-Jul-22 17:30N 37°49' W 122°25'0 0.0
2018-Jul-22 17:00N 37°49' W 122°25'0 0.0
2018-Jul-22 16:30N 37°49' W 122°25'0 0.0
2018-Jul-22 16:00N 37°49' W 122°25'0 0.0
2018-Jul-22 15:00N 37°49' W 122°25'0 0.0
2018-Jul-22 14:30N 37°49' W 122°25'0 0.0
2018-Jul-22 13:54N 37°49' W 122°25'0 0.0
2018-Jul-22 13:30N 37°49' W 122°25'0 0.0
2018-Jul-22 13:00N 37°49' W 122°25'0 0.0
2018-Jul-22 12:30N 37°49' W 122°25'0 0.0
2018-Jul-22 11:42N 37°49' W 122°25'0 0.0
2018-Jul-22 11:30N 37°49' W 122°25'0 0.0
2018-Jul-22 11:00N 37°49' W 122°25'0 0.0
2018-Jul-22 10:30N 37°49' W 122°25'0 0.0
2018-Jul-22 10:00N 37°49' W 122°25'0 0.0
2018-Jul-22 09:30N 37°49' W 122°25'0 0.0
2018-Jul-22 08:54N 37°49' W 122°25'0 0.0
2018-Jul-22 08:30N 37°49' W 122°25'0 0.0
2018-Jul-22 07:57N 37°49' W 122°25'0 0.0
2018-Jul-22 07:27N 37°49' W 122°25'0 0.0
2018-Jul-22 06:48N 37°49' W 122°25'0 0.0
2018-Jul-22 06:30N 37°49' W 122°25'0 0.0
2018-Jul-22 06:00N 37°49' W 122°25'0 0.0
2018-Jul-22 05:21N 37°49' W 122°25'0 0.0
2018-Jul-22 04:57N 37°49' W 122°25'0 0.0
2018-Jul-22 04:21N 37°49' W 122°25'0 0.0
2018-Jul-22 04:00N 37°49' W 122°25'0 0.0
2018-Jul-22 03:27N 37°49' W 122°25'0 0.0
2018-Jul-22 03:00N 37°49' W 122°25'0 0.0
2018-Jul-22 02:27N 37°49' W 122°25'0 0.0
2018-Jul-22 02:00N 37°49' W 122°25'0 0.0
2018-Jul-22 01:30N 37°49' W 122°25'0 0.0
2018-Jul-22 00:57N 37°49' W 122°25'0 0.0
2018-Jul-22 00:30N 37°49' W 122°25'0 0.0
2018-Jul-22 00:00N 37°49' W 122°25'0 0.0
2018-Jul-21 23:30N 37°49' W 122°25'0 0.0
2018-Jul-21 22:48N 37°49' W 122°25'0 0.0
2018-Jul-21 22:21N 37°49' W 122°25'0 0.0
2018-Jul-21 22:00N 37°49' W 122°25'0 0.0
2018-Jul-21 21:24N 37°49' W 122°25'0 0.0
2018-Jul-21 21:00N 37°49' W 122°25'0 0.0
2018-Jul-21 20:30N 37°49' W 122°25'0 0.0
2018-Jul-21 19:57N 37°49' W 122°25'0 0.0
2018-Jul-21 19:30N 37°49' W 122°25'0 0.0
2018-Jul-21 19:00N 37°49' W 122°25'0 0.0
2018-Jul-21 18:24N 37°49' W 122°25'0 0.0
2018-Jul-21 18:00N 37°49' W 122°25'0 0.0
2018-Jul-21 17:30N 37°49' W 122°25'0 0.0
2018-Jul-21 17:00N 37°49' W 122°25'0 0.0
2018-Jul-21 16:30N 37°49' W 122°25'0 0.0
2018-Jul-21 15:57N 37°49' W 122°25'0 0.0
2018-Jul-21 15:30N 37°49' W 122°25'0 0.0
2018-Jul-21 15:00N 37°49' W 122°25'0 0.0
2018-Jul-21 14:30N 37°49' W 122°25'0 0.0
2018-Jul-21 13:30N 37°49' W 122°25'0 0.0
2018-Jul-21 13:00N 37°49' W 122°25'0 0.0
2018-Jul-21 12:27N 37°49' W 122°25'0 0.0
2018-Jul-21 12:00N 37°49' W 122°25'0 0.0
2018-Jul-21 11:24N 37°49' W 122°25'0 0.0
2018-Jul-21 11:00N 37°49' W 122°25'0 0.0
2018-Jul-21 10:24N 37°49' W 122°25'0 0.0
2018-Jul-21 10:00N 37°49' W 122°25'0 0.0
2018-Jul-21 09:30N 37°49' W 122°25'0 0.0
2018-Jul-21 08:54N 37°49' W 122°25'0 0.0
2018-Jul-21 08:30N 37°49' W 122°25'0 0.0
2018-Jul-21 08:00N 37°49' W 122°25'0 0.0
2018-Jul-21 07:30N 37°49' W 122°25'0 0.8
2018-Jul-21 07:00N 37°49' W 122°25'3 5.4
2018-Jul-21 06:30N 37°49' W 122°29'2 4.7
2018-Jul-21 05:59N 37°48' W 122°31'19 6.6
2018-Jul-21 03:07N 37°37' W 122°51'17 0.8
2018-Jul-20 06:41N 37°52' W 123°02'2 5.9
2018-Jul-20 06:18N 37°51' W 122°59'19 6.2
2018-Jul-20 03:12N 37°47' W 122°36'2 6.3
2018-Jul-20 02:56N 37°48' W 122°34'3 6.4
2018-Jul-20 02:29N 37°49' W 122°30'3 5.2
2018-Jul-20 02:00N 37°49' W 122°27'2 3.1
2018-Jul-20 01:29N 37°49' W 122°25'0 0.1
2018-Jul-20 00:56N 37°49' W 122°25'0 0.0
2018-Jul-20 00:29N 37°49' W 122°25'0 0.0
2018-Jul-19 23:59N 37°49' W 122°25'0 0.0
2018-Jul-19 23:29N 37°49' W 122°25'0 0.0
2018-Jul-19 22:59N 37°49' W 122°25'0 0.0
2018-Jul-19 22:26N 37°49' W 122°25'0 0.0
2018-Jul-19 21:59N 37°49' W 122°25'0 0.0
2018-Jul-19 21:23N 37°49' W 122°25'0 0.0
2018-Jul-19 20:59N 37°49' W 122°25'0 0.0
2018-Jul-19 20:26N 37°49' W 122°25'0 0.0
2018-Jul-19 19:59N 37°49' W 122°25'0 0.0
2018-Jul-19 19:29N 37°49' W 122°25'0 0.2
2018-Jul-19 18:52N 37°49' W 122°25'0 0.0
2018-Jul-19 18:28N 37°49' W 122°25'0 0.2
2018-Jul-19 17:57N 37°49' W 122°25'0 0.0
2018-Jul-19 17:30N 37°49' W 122°25'0 0.2
2018-Jul-19 16:55N 37°49' W 122°25'0 0.0
2018-Jul-19 16:28N 37°49' W 122°25'0 0.0
2018-Jul-19 15:55N 37°49' W 122°25'0 0.0
2018-Jul-19 15:28N 37°49' W 122°25'0 0.0
2018-Jul-19 14:55N 37°49' W 122°25'0 0.0
2018-Jul-19 14:28N 37°49' W 122°25'0 0.0
2018-Jul-19 13:22N 37°49' W 122°25'0 0.0
2018-Jul-19 12:58N 37°49' W 122°25'0 0.0
2018-Jul-19 12:28N 37°49' W 122°25'0 0.0
2018-Jul-19 11:58N 37°49' W 122°25'0 0.0
2018-Jul-19 11:28N 37°49' W 122°25'0 0.0
2018-Jul-19 10:55N 37°49' W 122°25'0 0.0
2018-Jul-19 10:25N 37°49' W 122°25'0 0.0
2018-Jul-19 09:58N 37°49' W 122°25'0 0.0
2018-Jul-19 09:28N 37°49' W 122°25'0 0.0
2018-Jul-19 08:58N 37°49' W 122°25'0 0.0
2018-Jul-19 08:22N 37°49' W 122°25'0 0.0
2018-Jul-19 07:58N 37°49' W 122°25'0 0.0
2018-Jul-19 07:28N 37°49' W 122°25'0 0.0
2018-Jul-19 06:58N 37°49' W 122°25'0 0.0
2018-Jul-19 06:28N 37°49' W 122°25'0 0.0
2018-Jul-19 05:58N 37°49' W 122°25'0 0.0
2018-Jul-19 05:22N 37°49' W 122°25'0 0.0
2018-Jul-19 04:52N 37°49' W 122°25'0 0.0
2018-Jul-19 04:25N 37°49' W 122°25'0 0.0
2018-Jul-19 03:58N 37°49' W 122°25'0 0.0
2018-Jul-19 03:22N 37°49' W 122°25'0 0.0
2018-Jul-19 02:58N 37°49' W 122°25'0 0.0
2018-Jul-19 02:25N 37°49' W 122°25'0 0.0
2018-Jul-19 01:55N 37°49' W 122°25'0 0.0
2018-Jul-19 01:25N 37°49' W 122°25'0 0.0
2018-Jul-19 00:58N 37°49' W 122°25'0 0.0
2018-Jul-19 00:28N 37°49' W 122°25'0 0.0
2018-Jul-18 23:58N 37°49' W 122°25'0 0.0
2018-Jul-18 23:25N 37°49' W 122°25'0 0.0
2018-Jul-18 22:55N 37°49' W 122°25'0 0.0
2018-Jul-18 22:22N 37°49' W 122°25'0 0.0
2018-Jul-18 21:55N 37°49' W 122°25'0 0.0
2018-Jul-18 21:28N 37°49' W 122°25'0 0.0
2018-Jul-18 20:58N 37°49' W 122°25'0 0.0
2018-Jul-18 20:28N 37°49' W 122°25'0 0.0
2018-Jul-18 19:58N 37°49' W 122°25'0 0.0
2018-Jul-18 19:22N 37°49' W 122°25'0 0.0
2018-Jul-18 18:58N 37°49' W 122°25'0 0.0
2018-Jul-18 18:28N 37°49' W 122°25'0 0.0
2018-Jul-18 17:38N 37°49' W 122°25'0 0.0
2018-Jul-18 17:29N 37°49' W 122°25'0 0.0
2018-Jul-18 16:59N 37°49' W 122°25'0 0.0
2018-Jul-18 16:29N 37°49' W 122°25'0 0.0
2018-Jul-18 15:56N 37°49' W 122°25'0 0.0
2018-Jul-18 15:29N 37°49' W 122°25'0 0.0
2018-Jul-18 14:59N 37°49' W 122°25'0 0.0
2018-Jul-18 14:20N 37°49' W 122°25'0 0.0
2018-Jul-18 11:44N 37°49' W 122°25'0 0.0
2018-Jul-18 11:14N 37°49' W 122°25'0 0.0
2018-Jul-18 10:29N 37°49' W 122°25'0 0.0
2018-Jul-18 09:56N 37°49' W 122°25'0 0.0
2018-Jul-18 09:29N 37°49' W 122°25'0 0.0
2018-Jul-18 08:59N 37°49' W 122°25'0 0.0
2018-Jul-18 08:26N 37°49' W 122°25'0 0.0
2018-Jul-18 07:59N 37°49' W 122°25'0 0.0
2018-Jul-18 07:29N 37°49' W 122°25'0 0.0
2018-Jul-18 06:56N 37°49' W 122°25'0 0.0
2018-Jul-18 06:26N 37°49' W 122°25'0 0.0
2018-Jul-18 05:59N 37°49' W 122°25'0 0.0
2018-Jul-18 05:29N 37°49' W 122°25'0 0.0
2018-Jul-18 04:59N 37°49' W 122°25'0 0.0
2018-Jul-18 04:29N 37°49' W 122°25'0 0.0
2018-Jul-18 03:59N 37°49' W 122°25'0 0.0
2018-Jul-18 03:29N 37°49' W 122°25'0 0.0
2018-Jul-18 02:59N 37°49' W 122°25'0 0.0
2018-Jul-18 02:29N 37°49' W 122°25'0 0.0
2018-Jul-18 01:59N 37°49' W 122°25'0 0.0
2018-Jul-18 01:29N 37°49' W 122°25'0 0.0
2018-Jul-18 00:56N 37°49' W 122°25'0 0.0
2018-Jul-18 00:29N 37°49' W 122°25'0 0.0
2018-Jul-17 23:59N 37°49' W 122°25'0 0.0
2018-Jul-17 23:29N 37°49' W 122°25'0 0.0
2018-Jul-17 22:44N 37°49' W 122°25'0 0.0
2018-Jul-17 22:30N 37°49' W 122°25'0 0.0
2018-Jul-17 21:53N 37°49' W 122°25'0 0.0
2018-Jul-17 21:26N 37°49' W 122°25'0 0.0
2018-Jul-17 20:59N 37°49' W 122°25'0 0.0
2018-Jul-17 20:26N 37°49' W 122°25'0 0.0
2018-Jul-17 19:56N 37°49' W 122°25'0 0.0
2018-Jul-17 19:29N 37°49' W 122°25'0 0.0
2018-Jul-17 18:50N 37°49' W 122°25'0 0.0
2018-Jul-17 18:12N 37°49' W 122°25'0 0.0
2018-Jul-17 17:42N 37°49' W 122°25'0 0.0
2018-Jul-17 17:30N 37°49' W 122°25'0 0.0
2018-Jul-17 17:00N 37°49' W 122°25'0 0.0
2018-Jul-17 16:18N 37°49' W 122°25'0 0.0
2018-Jul-17 15:57N 37°49' W 122°25'0 0.0
2018-Jul-17 15:21N 37°49' W 122°25'0 0.0
2018-Jul-17 14:57N 37°49' W 122°25'0 0.0
2018-Jul-17 14:30N 37°49' W 122°25'0 0.0
2018-Jul-17 13:51N 37°49' W 122°25'0 0.0
2018-Jul-17 13:21N 37°49' W 122°25'0 0.0
2018-Jul-17 12:54N 37°49' W 122°25'0 0.0
2018-Jul-17 12:24N 37°49' W 122°25'0 0.0
2018-Jul-17 11:57N 37°49' W 122°25'0 0.0
2018-Jul-17 11:24N 37°49' W 122°25'0 0.0
2018-Jul-17 11:00N 37°49' W 122°25'0 0.0
2018-Jul-17 10:30N 37°49' W 122°25'0 0.0
2018-Jul-17 09:54N 37°49' W 122°25'0 0.0
2018-Jul-17 09:30N 37°49' W 122°25'0 0.0
2018-Jul-17 09:00N 37°49' W 122°25'0 0.0
2018-Jul-17 08:30N 37°49' W 122°25'0 0.0
2018-Jul-17 08:00N 37°49' W 122°25'0 0.0
2018-Jul-17 07:30N 37°49' W 122°25'0 0.0
2018-Jul-17 07:00N 37°49' W 122°25'0 0.0
2018-Jul-17 06:30N 37°49' W 122°25'0 0.0
2018-Jul-17 05:54N 37°49' W 122°25'0 0.0
2018-Jul-17 05:27N 37°49' W 122°25'0 0.0
2018-Jul-17 05:00N 37°49' W 122°25'0 0.0
2018-Jul-17 04:24N 37°49' W 122°25'0 0.0
2018-Jul-17 04:00N 37°49' W 122°25'0 0.0
2018-Jul-17 03:30N 37°49' W 122°25'0 0.0
2018-Jul-17 02:57N 37°49' W 122°25'0 0.0
2018-Jul-17 02:30N 37°49' W 122°25'0 0.0
2018-Jul-17 01:51N 37°49' W 122°25'0 0.0
2018-Jul-17 01:30N 37°49' W 122°25'0 0.0
2018-Jul-17 01:00N 37°49' W 122°25'0 0.0
2018-Jul-17 00:30N 37°49' W 122°25'0 0.0
2018-Jul-16 23:27N 37°49' W 122°25'0 0.0
2018-Jul-16 22:51N 37°49' W 122°25'0 0.0
2018-Jul-16 22:27N 37°49' W 122°25'0 0.0
2018-Jul-16 22:00N 37°49' W 122°25'0 0.0
2018-Jul-16 21:30N 37°49' W 122°25'0 0.0
2018-Jul-16 21:00N 37°49' W 122°25'0 0.0
2018-Jul-16 20:27N 37°49' W 122°25'0 0.0
2018-Jul-16 19:57N 37°49' W 122°25'0 0.0
2018-Jul-16 19:27N 37°49' W 122°25'0 0.0
2018-Jul-16 19:00N 37°49' W 122°25'0 0.0
2018-Jul-16 18:21N 37°49' W 122°25'0 0.0
2018-Jul-16 18:00N 37°49' W 122°25'0 0.0
2018-Jul-16 17:24N 37°49' W 122°25'0 0.0
2018-Jul-16 17:00N 37°49' W 122°25'0 0.0
2018-Jul-16 16:30N 37°49' W 122°25'0 0.0
2018-Jul-16 15:48N 37°49' W 122°25'0 0.0
2018-Jul-16 15:27N 37°49' W 122°25'0 0.0
2018-Jul-16 15:00N 37°49' W 122°25'0 0.0
2018-Jul-16 14:27N 37°49' W 122°25'0 0.0
2018-Jul-16 14:00N 37°49' W 122°25'0 0.0
2018-Jul-16 13:24N 37°49' W 122°25'0 0.0
2018-Jul-16 13:00N 37°49' W 122°25'0 0.0
2018-Jul-16 12:30N 37°49' W 122°25'0 0.0
2018-Jul-16 12:00N 37°49' W 122°25'0 0.0
2018-Jul-16 11:30N 37°49' W 122°25'0 0.0
2018-Jul-16 11:00N 37°49' W 122°25'0 0.0
2018-Jul-16 10:27N 37°49' W 122°25'0 0.0
2018-Jul-16 10:00N 37°49' W 122°25'0 0.0
2018-Jul-16 09:30N 37°49' W 122°25'0 0.0
2018-Jul-16 09:00N 37°49' W 122°25'0 0.0
2018-Jul-16 08:27N 37°49' W 122°25'0 0.0
2018-Jul-16 08:00N 37°49' W 122°25'0 0.0
2018-Jul-16 07:27N 37°49' W 122°25'0 0.0
2018-Jul-16 06:54N 37°49' W 122°25'0 0.0
2018-Jul-16 06:27N 37°49' W 122°25'0 0.0
2018-Jul-16 06:00N 37°49' W 122°25'0 0.0
2018-Jul-16 05:30N 37°49' W 122°25'0 0.0
2018-Jul-16 04:51N 37°49' W 122°25'0 0.0
2018-Jul-16 04:30N 37°49' W 122°25'0 0.0
2018-Jul-16 04:00N 37°49' W 122°25'0 0.0
2018-Jul-16 03:30N 37°49' W 122°25'0 0.0
2018-Jul-16 02:55N 37°49' W 122°25'0 0.0
2018-Jul-16 02:25N 37°49' W 122°25'0 0.0
2018-Jul-16 01:55N 37°49' W 122°25'0 0.0
2018-Jul-16 01:28N 37°49' W 122°25'0 0.0
2018-Jul-16 00:58N 37°49' W 122°25'0 0.0
2018-Jul-16 00:28N 37°49' W 122°25'0 0.0
2018-Jul-15 23:49N 37°49' W 122°25'0 0.0
2018-Jul-15 23:28N 37°49' W 122°25'0 0.0
2018-Jul-15 22:55N 37°49' W 122°25'0 0.0
2018-Jul-15 22:28N 37°49' W 122°25'0 0.0
2018-Jul-15 21:52N 37°49' W 122°25'0 0.0
2018-Jul-15 21:28N 37°49' W 122°25'0 0.0
2018-Jul-15 21:00N 37°49' W 122°25'0 0.0
2018-Jul-15 20:27N 37°49' W 122°25'0 0.0
2018-Jul-15 20:00N 37°49' W 122°25'0 0.0
2018-Jul-15 19:30N 37°49' W 122°25'0 0.0
2018-Jul-15 18:57N 37°49' W 122°25'0 0.0
2018-Jul-15 18:30N 37°49' W 122°25'0 0.0
2018-Jul-15 17:57N 37°49' W 122°25'0 0.0
2018-Jul-15 17:27N 37°49' W 122°25'0 0.0
2018-Jul-15 16:48N 37°49' W 122°25'0 0.0
2018-Jul-15 16:12N 37°49' W 122°25'0 0.0
2018-Jul-15 16:00N 37°49' W 122°25'0 0.0
2018-Jul-15 15:21N 37°49' W 122°25'0 0.0
2018-Jul-15 15:00N 37°49' W 122°25'0 0.0
2018-Jul-15 14:27N 37°49' W 122°25'0 0.0
2018-Jul-15 13:57N 37°49' W 122°25'0 0.0
2018-Jul-15 13:30N 37°49' W 122°25'0 0.0
2018-Jul-15 13:00N 37°49' W 122°25'0 0.0
2018-Jul-15 12:24N 37°49' W 122°25'0 0.0
2018-Jul-15 12:00N 37°49' W 122°25'0 0.0
2018-Jul-15 11:30N 37°49' W 122°25'0 0.0
2018-Jul-15 11:00N 37°49' W 122°25'0 0.0
2018-Jul-15 10:30N 37°49' W 122°25'0 0.0
2018-Jul-15 10:00N 37°49' W 122°25'0 0.0
2018-Jul-15 09:30N 37°49' W 122°25'0 0.0
2018-Jul-15 08:57N 37°49' W 122°25'0 0.0
2018-Jul-15 08:30N 37°49' W 122°25'0 0.0
2018-Jul-15 08:00N 37°49' W 122°25'0 0.0
2018-Jul-15 07:30N 37°49' W 122°25'0 0.0
2018-Jul-15 07:00N 37°49' W 122°25'0 0.0
2018-Jul-15 06:24N 37°49' W 122°25'0 0.0
2018-Jul-15 06:00N 37°49' W 122°25'0 0.0
2018-Jul-15 05:30N 37°49' W 122°25'0 0.0
2018-Jul-15 05:00N 37°49' W 122°25'0 0.0
2018-Jul-15 04:24N 37°49' W 122°25'0 0.0
2018-Jul-15 04:00N 37°49' W 122°25'0 0.0
2018-Jul-15 03:30N 37°49' W 122°25'0 0.0
2018-Jul-15 03:00N 37°49' W 122°25'0 0.0
2018-Jul-15 02:30N 37°49' W 122°25'0 0.0
2018-Jul-15 02:00N 37°49' W 122°25'0 0.0
2018-Jul-15 01:30N 37°49' W 122°25'0 0.0
2018-Jul-15 00:56N 37°49' W 122°25'0 0.0
2018-Jul-15 00:26N 37°49' W 122°25'0 0.0
2018-Jul-14 23:59N 37°49' W 122°25'0 0.0
2018-Jul-14 23:29N 37°49' W 122°25'0 0.0
2018-Jul-14 22:50N 37°49' W 122°25'0 0.0
2018-Jul-14 22:23N 37°49' W 122°25'0 0.0
2018-Jul-14 21:59N 37°49' W 122°25'0 0.0
2018-Jul-14 21:29N 37°49' W 122°25'0 0.0
2018-Jul-14 20:59N 37°49' W 122°25'0 0.0
2018-Jul-14 20:29N 37°49' W 122°25'0 0.0
2018-Jul-14 19:56N 37°49' W 122°25'0 0.0
2018-Jul-14 19:29N 37°49' W 122°25'0 0.0
2018-Jul-14 18:59N 37°49' W 122°25'0 0.0
2018-Jul-14 18:29N 37°49' W 122°25'0 0.0
2018-Jul-14 17:56N 37°49' W 122°25'0 0.0
2018-Jul-14 17:29N 37°49' W 122°25'0 0.0
2018-Jul-14 16:59N 37°49' W 122°25'0 0.0
2018-Jul-14 16:29N 37°49' W 122°25'0 0.0
2018-Jul-14 15:59N 37°49' W 122°25'0 0.0
2018-Jul-14 15:29N 37°49' W 122°25'0 0.0
2018-Jul-14 14:58N 37°49' W 122°25'0 0.0
2018-Jul-14 13:55N 37°49' W 122°25'0 0.0
2018-Jul-14 13:27N 37°49' W 122°25'0 0.0
2018-Jul-14 13:00N 37°49' W 122°25'0 0.0
2018-Jul-14 12:27N 37°49' W 122°25'0 0.0
2018-Jul-14 12:00N 37°49' W 122°25'0 0.0
2018-Jul-14 11:30N 37°49' W 122°25'0 0.0
2018-Jul-14 11:00N 37°49' W 122°25'0 0.0
2018-Jul-14 10:30N 37°49' W 122°25'0 0.0
2018-Jul-14 10:00N 37°49' W 122°25'0 0.0
2018-Jul-14 09:30N 37°49' W 122°25'0 0.0
2018-Jul-14 09:00N 37°49' W 122°25'0 0.0
2018-Jul-14 08:30N 37°49' W 122°25'0 0.0
2018-Jul-14 08:00N 37°49' W 122°25'0 0.0
2018-Jul-14 07:30N 37°49' W 122°25'0 0.0
2018-Jul-14 07:00N 37°49' W 122°25'0 0.0
2018-Jul-14 06:30N 37°49' W 122°25'0 0.0
2018-Jul-14 05:57N 37°49' W 122°25'0 0.0
2018-Jul-14 05:30N 37°49' W 122°25'0 0.5
2018-Jul-14 05:00N 37°49' W 122°25'4 7.1
2018-Jul-14 04:30N 37°49' W 122°30'6 8.2
2018-Jul-14 03:44N 37°45' W 122°36'  

Dump ship's entire track history